createdAt,value
2017-09-27T00:02:00.106Z,11.00
2017-09-27T00:04:28.962Z,10.63
2017-09-27T00:06:58.612Z,10.70
2017-09-27T00:09:27.551Z,11.07
2017-09-27T00:11:56.891Z,10.50
2017-09-27T00:14:25.834Z,10.60
2017-09-27T00:16:54.737Z,10.83
2017-09-27T00:19:23.590Z,11.60
2017-09-27T00:21:52.554Z,11.45
2017-09-27T00:24:22.298Z,11.40
2017-09-27T00:26:51.540Z,13.25
2017-09-27T00:29:21.115Z,19.17
2017-09-27T00:31:51.736Z,12.50
2017-09-27T00:34:20.829Z,11.77
2017-09-27T00:36:49.671Z,11.77
2017-09-27T00:39:19.888Z,11.45
2017-09-27T00:41:49.133Z,11.20
2017-09-27T00:44:18.102Z,10.90
2017-09-27T00:46:47.234Z,11.20
2017-09-27T00:49:16.378Z,12.98
2017-09-27T00:51:45.239Z,11.90
2017-09-27T00:54:15.370Z,12.70
2017-09-27T00:56:45.078Z,12.00
2017-09-27T00:59:14.762Z,12.40
2017-09-27T01:01:43.609Z,12.65
2017-09-27T01:04:12.473Z,12.70
2017-09-27T01:06:42.089Z,12.85
2017-09-27T01:09:11.424Z,12.70
2017-09-27T01:11:40.432Z,13.27
2017-09-27T01:14:10.391Z,12.67
2017-09-27T01:16:39.312Z,13.77
2017-09-27T01:19:08.456Z,13.57
2017-09-27T01:23:50.016Z,13.60
2017-09-27T01:26:19.142Z,12.53
2017-09-27T01:28:49.638Z,14.87
2017-09-27T01:31:18.589Z,14.30
2017-09-27T01:33:47.611Z,12.85
2017-09-27T01:36:16.719Z,13.70
2017-09-27T01:38:45.941Z,15.25
2017-09-27T01:41:14.860Z,16.00
2017-09-27T01:43:44.192Z,15.30
2017-09-27T01:46:13.712Z,16.30
2017-09-27T01:48:42.594Z,15.38
2017-09-27T01:51:11.902Z,13.80
2017-09-27T01:53:40.980Z,14.27
2017-09-27T01:56:10.087Z,13.65
2017-09-27T01:58:39.349Z,14.02
2017-09-27T02:01:08.514Z,13.10
2017-09-27T02:03:38.544Z,13.18
2017-09-27T02:06:07.845Z,13.88
2017-09-27T02:08:37.015Z,14.10
2017-09-27T02:11:06.646Z,14.15
2017-09-27T02:13:35.787Z,12.88
2017-09-27T02:16:05.023Z,15.02
2017-09-27T02:18:34.157Z,14.43
2017-09-27T02:21:03.704Z,13.60
2017-09-27T02:23:32.673Z,13.27
2017-09-27T02:26:01.475Z,14.13
2017-09-27T02:28:30.246Z,13.88
2017-09-27T02:30:59.131Z,15.98
2017-09-27T02:33:28.366Z,15.20
2017-09-27T02:35:58.494Z,14.68
2017-09-27T02:38:28.262Z,14.20
2017-09-27T02:40:57.683Z,15.75
2017-09-27T02:43:26.675Z,15.57
2017-09-27T02:45:55.628Z,15.60
2017-09-27T02:48:24.785Z,16.60
2017-09-27T02:50:54.883Z,15.68
2017-09-27T02:53:24.251Z,17.80
2017-09-27T02:55:53.248Z,16.85
2017-09-27T02:58:22.272Z,17.85
2017-09-27T03:00:51.237Z,17.73
2017-09-27T03:03:20.538Z,18.40
2017-09-27T03:05:49.838Z,19.97
2017-09-27T03:08:18.926Z,18.93
2017-09-27T03:10:47.958Z,19.17
2017-09-27T03:13:17.709Z,18.35
2017-09-27T03:15:46.816Z,17.57
2017-09-27T03:18:15.878Z,20.07
2017-09-27T03:20:45.047Z,18.20
2017-09-27T03:23:15.545Z,17.23
2017-09-27T03:25:44.431Z,17.40
2017-09-27T03:28:13.287Z,17.60
2017-09-27T03:30:42.486Z,17.10
2017-09-27T03:33:11.250Z,16.80
2017-09-27T03:35:41.343Z,15.82
2017-09-27T03:38:10.256Z,15.82
2017-09-27T03:40:39.172Z,16.20
2017-09-27T03:43:08.056Z,16.15
2017-09-27T03:45:36.867Z,15.18
2017-09-27T03:48:07.896Z,15.20
2017-09-27T03:50:36.949Z,15.18
2017-09-27T03:53:05.891Z,14.87
2017-09-27T03:55:35.151Z,14.60
2017-09-27T03:58:04.738Z,14.53
2017-09-27T04:00:35.777Z,14.82
2017-09-27T04:03:05.417Z,15.52
2017-09-27T04:05:34.267Z,14.60
2017-09-27T04:08:04.486Z,16.45
2017-09-27T04:10:34.360Z,15.80
2017-09-27T04:13:03.466Z,17.98
2017-09-27T04:15:32.474Z,17.10
2017-09-27T04:18:01.324Z,17.60
2017-09-27T04:20:31.242Z,19.30
2017-09-27T04:23:00.639Z,18.75
2017-09-27T04:25:29.682Z,19.35
2017-09-27T04:27:59.462Z,18.40
2017-09-27T04:30:28.483Z,18.80
2017-09-27T04:32:57.779Z,17.50
2017-09-27T04:35:27.647Z,17.63
2017-09-27T04:37:56.918Z,17.08
2017-09-27T04:40:26.375Z,17.95
2017-09-27T04:42:56.960Z,17.55
2017-09-27T04:45:26.198Z,18.43
2017-09-27T04:47:55.172Z,17.80
2017-09-27T04:50:24.621Z,17.40
2017-09-27T04:52:54.380Z,17.80
2017-09-27T04:55:23.408Z,20.10
2017-09-27T04:57:52.886Z,18.92
2017-09-27T05:00:21.758Z,18.85
2017-09-27T05:02:50.811Z,23.60
2017-09-27T05:05:20.453Z,24.23
2017-09-27T05:08:06.080Z,20.60
2017-09-27T05:10:35.352Z,19.87
2017-09-27T05:13:04.215Z,19.90
2017-09-27T05:15:33.116Z,19.40
2017-09-27T05:18:02.515Z,20.00
2017-09-27T05:20:31.401Z,20.75
2017-09-27T05:23:00.204Z,20.12
2017-09-27T05:25:29.002Z,20.15
2017-09-27T05:27:59.010Z,19.67
2017-09-27T05:30:29.214Z,21.43
2017-09-27T05:32:58.038Z,21.00
2017-09-27T05:35:26.940Z,26.40
2017-09-27T05:37:55.837Z,25.50
2017-09-27T05:40:24.674Z,26.25
2017-09-27T05:42:53.531Z,23.87
2017-09-27T05:45:23.501Z,23.67
2017-09-27T05:47:52.317Z,23.10
2017-09-27T05:50:21.992Z,21.35
2017-09-27T05:52:50.805Z,21.48
2017-09-27T05:55:20.577Z,22.20
2017-09-27T05:57:49.535Z,20.88
2017-09-27T06:00:18.776Z,22.30
2017-09-27T06:02:47.580Z,24.92
2017-09-27T06:05:17.359Z,27.00
2017-09-27T06:07:46.240Z,22.42
2017-09-27T06:10:15.106Z,22.35
2017-09-27T06:12:44.276Z,21.55
2017-09-27T06:15:13.101Z,22.85
2017-09-27T06:17:42.778Z,22.77
2017-09-27T06:20:12.330Z,23.40
2017-09-27T06:22:41.997Z,24.60
2017-09-27T06:25:11.557Z,25.77
2017-09-27T06:27:40.433Z,29.80
2017-09-27T06:30:09.255Z,28.55
2017-09-27T06:32:38.469Z,29.55
2017-09-27T06:35:08.154Z,31.45
2017-09-27T06:37:36.917Z,33.80
2017-09-27T06:40:05.772Z,27.47
2017-09-27T06:42:34.672Z,53.70
2017-09-27T06:45:03.914Z,30.27
2017-09-27T06:47:32.976Z,26.03
2017-09-27T06:50:01.906Z,25.37
2017-09-27T06:52:30.927Z,23.45
2017-09-27T06:55:00.116Z,22.25
2017-09-27T06:57:29.697Z,30.03
2017-09-27T06:59:58.550Z,26.00
2017-09-27T07:02:27.435Z,23.60
2017-09-27T07:04:56.234Z,23.30
2017-09-27T07:07:25.168Z,23.87
2017-09-27T07:09:54.732Z,24.12
2017-09-27T07:12:23.621Z,23.00
2017-09-27T07:14:52.759Z,26.50
2017-09-27T07:17:21.733Z,23.50
2017-09-27T07:19:50.522Z,23.07
2017-09-27T07:22:19.391Z,44.95
2017-09-27T07:24:48.350Z,24.77
2017-09-27T07:27:17.478Z,23.33
2017-09-27T07:29:46.322Z,24.52
2017-09-27T07:32:15.975Z,24.80
2017-09-27T07:34:44.798Z,24.05
2017-09-27T07:37:14.321Z,22.77
2017-09-27T07:39:44.208Z,23.12
2017-09-27T07:42:13.222Z,24.10
2017-09-27T07:44:43.016Z,24.77
2017-09-27T07:47:12.387Z,24.10
2017-09-27T07:49:42.140Z,25.67
2017-09-27T07:52:11.870Z,25.02
2017-09-27T07:54:40.812Z,32.28
2017-09-27T07:57:09.792Z,25.08
2017-09-27T07:59:39.046Z,26.70
2017-09-27T08:02:07.864Z,25.40
2017-09-27T08:04:36.738Z,22.20
2017-09-27T08:07:05.843Z,23.07
2017-09-27T08:09:34.713Z,22.35
2017-09-27T08:12:03.776Z,21.87
2017-09-27T08:14:33.421Z,28.60
2017-09-27T08:17:02.544Z,22.50
2017-09-27T08:19:31.370Z,21.10
2017-09-27T08:22:01.397Z,21.20
2017-09-27T08:24:30.335Z,20.70
2017-09-27T08:26:59.539Z,22.30
2017-09-27T08:29:28.827Z,75.35
2017-09-27T08:31:57.660Z,22.75
2017-09-27T08:34:27.367Z,22.03
2017-09-27T08:36:57.027Z,21.95
2017-09-27T08:39:26.026Z,22.27
2017-09-27T08:41:54.981Z,22.37
2017-09-27T08:44:23.951Z,32.23
2017-09-27T08:46:53.647Z,30.00
2017-09-27T08:49:22.477Z,21.37
2017-09-27T08:51:51.872Z,24.25
2017-09-27T08:54:20.862Z,33.50
2017-09-27T08:56:49.872Z,34.35
2017-09-27T08:59:18.946Z,27.58
2017-09-27T09:01:48.720Z,23.15
2017-09-27T09:04:18.573Z,21.80
2017-09-27T09:06:47.555Z,34.65
2017-09-27T09:09:16.430Z,28.30
2017-09-27T09:11:46.166Z,23.98
2017-09-27T09:14:15.774Z,35.92
2017-09-27T09:16:44.638Z,30.47
2017-09-27T09:19:13.635Z,21.55
2017-09-27T09:21:42.801Z,23.03
2017-09-27T09:24:11.687Z,20.15
2017-09-27T09:26:40.546Z,43.47
2017-09-27T09:29:09.514Z,21.25
2017-09-27T09:31:38.475Z,20.65
2017-09-27T09:34:08.560Z,17.20
2017-09-27T09:36:37.404Z,17.48
2017-09-27T09:39:06.641Z,17.07
2017-09-27T09:41:35.634Z,16.77
2017-09-27T09:44:04.706Z,17.58
2017-09-27T09:46:33.725Z,19.20
2017-09-27T09:49:03.269Z,18.67
2017-09-27T09:51:33.462Z,16.70
2017-09-27T09:54:02.534Z,16.87
2017-09-27T09:56:31.583Z,17.50
2017-09-27T09:59:00.594Z,19.42
2017-09-27T10:01:29.603Z,17.40
2017-09-27T10:03:59.187Z,16.93
2017-09-27T10:06:30.087Z,15.77
2017-09-27T10:09:00.018Z,17.02
2017-09-27T10:11:30.477Z,15.70
2017-09-27T10:13:59.824Z,16.62
2017-09-27T10:16:29.839Z,17.53
2017-09-27T10:18:59.473Z,15.90
2017-09-27T10:21:29.223Z,15.27
2017-09-27T10:23:58.376Z,16.17
2017-09-27T10:26:29.281Z,15.35
2017-09-27T10:29:04.339Z,16.15
2017-09-27T10:31:35.202Z,15.60
2017-09-27T10:34:04.736Z,16.80
2017-09-27T10:36:34.461Z,15.50
2017-09-27T10:39:03.993Z,18.35
2017-09-27T10:41:35.159Z,15.55
2017-09-27T10:44:04.131Z,16.00
2017-09-27T10:46:35.173Z,14.35
2017-09-27T10:49:04.339Z,15.52
2017-09-27T10:51:33.351Z,14.50
2017-09-27T10:54:03.352Z,14.60
2017-09-27T10:56:32.381Z,14.90
2017-09-27T10:59:01.384Z,14.57
2017-09-27T11:01:30.162Z,15.45
2017-09-27T11:03:59.040Z,15.35
2017-09-27T11:06:28.836Z,15.52
2017-09-27T11:08:59.391Z,15.18
2017-09-27T11:11:28.512Z,15.50
2017-09-27T11:13:57.668Z,14.93
2017-09-27T11:16:28.056Z,21.20
2017-09-27T11:18:57.169Z,15.70
2017-09-27T11:21:26.243Z,16.27
2017-09-27T11:23:55.265Z,17.37
2017-09-27T11:26:25.093Z,27.77
2017-09-27T11:28:55.650Z,38.40
2017-09-27T11:31:24.519Z,35.33
2017-09-27T11:33:53.398Z,23.60
2017-09-27T11:36:22.413Z,28.33
2017-09-27T11:38:51.741Z,17.75
2017-09-27T11:41:20.803Z,17.20
2017-09-27T11:43:50.059Z,17.48
2017-09-27T11:46:19.103Z,17.37
2017-09-27T11:49:18.654Z,19.30
2017-09-27T11:51:47.553Z,26.27
2017-09-27T11:55:19.279Z,16.33
2017-09-27T11:57:48.181Z,16.60
2017-09-27T12:00:17.181Z,17.10
2017-09-27T12:02:46.232Z,14.40
2017-09-27T12:05:16.161Z,14.68
2017-09-27T12:07:45.305Z,14.20
2017-09-27T12:10:15.249Z,14.15
2017-09-27T12:12:44.285Z,13.60
2017-09-27T12:15:13.270Z,21.52
2017-09-27T12:17:42.313Z,17.90
2017-09-27T12:20:11.779Z,21.75
2017-09-27T12:22:40.874Z,19.62
2017-09-27T12:25:10.139Z,21.83
2017-09-27T12:27:39.633Z,21.40
2017-09-27T12:30:08.650Z,19.83
2017-09-27T12:32:37.822Z,17.50
2017-09-27T12:35:07.344Z,18.37
2017-09-27T12:37:36.648Z,16.75
2017-09-27T12:40:05.717Z,17.20
2017-09-27T12:42:34.832Z,17.92
2017-09-27T12:45:04.004Z,16.85
2017-09-27T12:47:36.026Z,16.30
2017-09-27T12:50:05.056Z,14.13
2017-09-27T12:52:34.708Z,16.33
2017-09-27T12:55:03.614Z,17.12
2017-09-27T12:57:32.511Z,15.10
2017-09-27T13:00:01.389Z,15.93
2017-09-27T13:02:30.335Z,16.30
2017-09-27T13:04:59.235Z,14.87
2017-09-27T13:07:28.343Z,15.50
2017-09-27T13:09:57.710Z,15.93
2017-09-27T13:12:26.698Z,14.40
2017-09-27T13:14:55.927Z,14.45
2017-09-27T13:17:25.178Z,15.60
2017-09-27T13:19:54.985Z,15.20
2017-09-27T13:22:24.978Z,14.00
2017-09-27T13:24:54.665Z,12.32
2017-09-27T13:27:24.712Z,12.40
2017-09-27T13:29:53.979Z,12.90
2017-09-27T13:32:23.039Z,14.23
2017-09-27T13:34:52.221Z,13.77
2017-09-27T13:37:21.890Z,12.20
2017-09-27T13:39:51.835Z,12.45
2017-09-27T13:42:20.934Z,12.10
2017-09-27T13:44:50.056Z,12.88
2017-09-27T13:47:19.210Z,12.02
2017-09-27T13:49:50.059Z,14.25
2017-09-27T13:52:19.854Z,15.40
2017-09-27T13:54:49.734Z,20.48
2017-09-27T13:57:19.848Z,35.78
2017-09-27T13:59:50.502Z,18.85
2017-09-27T14:02:20.528Z,24.63
2017-09-27T14:04:49.819Z,27.70
2017-09-27T14:07:19.015Z,21.70
2017-09-27T14:09:49.416Z,15.80
2017-09-27T14:12:19.634Z,20.50
2017-09-27T14:14:49.756Z,20.83
2017-09-27T14:17:19.382Z,27.30
2017-09-27T14:19:49.751Z,27.73
2017-09-27T14:22:19.040Z,19.85
2017-09-27T14:24:48.272Z,16.20
2017-09-27T14:27:17.533Z,15.52
2017-09-27T14:29:47.314Z,20.23
2017-09-27T14:32:17.437Z,14.00
2017-09-27T14:34:46.437Z,18.92
2017-09-27T14:37:16.193Z,17.12
2017-09-27T14:39:45.280Z,15.30
2017-09-27T14:42:15.315Z,15.88
2017-09-27T14:44:44.484Z,14.30
2017-09-27T14:47:13.561Z,12.30
2017-09-27T14:49:43.742Z,14.30
2017-09-27T14:52:12.913Z,13.27
2017-09-27T14:54:42.143Z,14.50
2017-09-27T14:57:12.256Z,15.55
2017-09-27T14:59:42.073Z,12.50
2017-09-27T15:02:11.402Z,12.63
2017-09-27T15:04:41.888Z,14.15
2017-09-27T15:10:01.281Z,12.10
2017-09-27T15:12:30.378Z,12.95
2017-09-27T15:15:01.492Z,10.90
2017-09-27T15:17:31.337Z,14.40
2017-09-27T15:20:02.260Z,13.75
2017-09-27T15:22:31.118Z,11.53
2017-09-27T15:25:00.104Z,11.73
2017-09-27T15:27:30.060Z,10.65
2017-09-27T15:29:59.565Z,11.50
2017-09-27T15:32:29.074Z,11.27
2017-09-27T15:34:58.100Z,10.30
2017-09-27T15:37:27.848Z,11.80
2017-09-27T15:39:57.337Z,14.30
2017-09-27T15:42:27.739Z,14.30
2017-09-27T15:44:57.241Z,12.35
2017-09-27T15:47:27.052Z,20.05
2017-09-27T15:49:56.870Z,11.48
2017-09-27T15:52:26.440Z,16.67
2017-09-27T15:54:56.226Z,14.20
2017-09-27T15:57:25.304Z,11.12
2017-09-27T15:59:54.288Z,14.33
2017-09-27T16:02:23.362Z,18.83
2017-09-27T16:05:07.349Z,17.15
2017-09-27T16:07:36.455Z,21.55
2017-09-27T16:10:05.570Z,14.63
2017-09-27T16:12:35.335Z,13.90
2017-09-27T16:15:04.323Z,11.23
2017-09-27T16:17:33.348Z,12.75
2017-09-27T16:20:02.353Z,11.38
2017-09-27T16:22:31.686Z,11.73
2017-09-27T16:25:00.636Z,16.50
2017-09-27T16:27:29.863Z,10.73
2017-09-27T16:29:58.991Z,21.87
2017-09-27T16:32:28.060Z,17.83
2017-09-27T16:34:57.339Z,14.32
2017-09-27T16:37:26.203Z,9.68
2017-09-27T16:39:56.101Z,13.25
2017-09-27T16:42:25.322Z,11.88
2017-09-27T16:44:54.595Z,9.80
2017-09-27T16:47:24.665Z,9.63
2017-09-27T16:49:53.968Z,11.50
2017-09-27T16:52:23.233Z,11.68
2017-09-27T16:54:52.383Z,17.37
2017-09-27T16:57:21.224Z,19.65
2017-09-27T16:59:50.062Z,13.73
2017-09-27T17:02:19.119Z,14.98
2017-09-27T17:04:48.729Z,13.05
2017-09-27T17:07:18.640Z,12.32
2017-09-27T17:09:47.543Z,9.52
2017-09-27T17:12:17.172Z,12.60
2017-09-27T17:14:46.182Z,11.90
2017-09-27T17:17:15.330Z,10.77
2017-09-27T17:19:45.449Z,10.30
2017-09-27T17:22:15.199Z,11.93
2017-09-27T17:24:44.598Z,12.90
2017-09-27T17:27:13.902Z,12.15
2017-09-27T17:29:43.124Z,12.63
2017-09-27T17:32:13.045Z,12.32
2017-09-27T17:34:42.373Z,12.80
2017-09-27T17:37:12.092Z,12.70
2017-09-27T17:39:41.207Z,12.32
2017-09-27T17:42:10.365Z,13.00
2017-09-27T17:44:39.710Z,13.60
2017-09-27T17:47:08.845Z,13.32
2017-09-27T17:49:39.051Z,13.35
2017-09-27T17:52:08.202Z,13.00
2017-09-27T17:54:37.533Z,26.50
2017-09-27T17:57:09.972Z,37.40
2017-09-27T17:59:40.110Z,27.50
2017-09-27T18:02:09.444Z,21.25
2017-09-27T18:04:41.420Z,16.30
2017-09-27T18:07:15.330Z,16.12
2017-09-27T18:09:45.265Z,15.10
2017-09-27T18:12:15.022Z,15.57
2017-09-27T18:14:45.918Z,15.13
2017-09-27T18:17:17.272Z,14.90
2017-09-27T18:19:46.238Z,15.17
2017-09-27T18:22:16.118Z,14.48
2017-09-27T18:24:45.419Z,14.70
2017-09-27T18:27:14.935Z,15.57
2017-09-27T18:29:43.862Z,15.10
2017-09-27T18:32:12.806Z,15.35
2017-09-27T18:34:42.094Z,30.85
2017-09-27T18:37:10.949Z,22.70
2017-09-27T18:39:40.586Z,17.02
2017-09-27T18:42:09.805Z,14.18
2017-09-27T18:44:39.236Z,16.33
2017-09-27T18:47:08.471Z,15.48
2017-09-27T18:49:37.438Z,15.55
2017-09-27T18:52:06.828Z,15.03
2017-09-27T18:54:35.836Z,15.18
2017-09-27T18:57:05.040Z,15.38
2017-09-27T18:59:34.584Z,16.00
2017-09-27T19:02:03.769Z,16.35
2017-09-27T19:04:33.109Z,15.60
2017-09-27T19:07:03.171Z,17.00
2017-09-27T19:09:32.400Z,15.48
2017-09-27T19:12:02.219Z,18.00
2017-09-27T19:14:32.133Z,17.27
2017-09-27T19:17:03.090Z,17.53
2017-09-27T19:19:35.658Z,18.00
2017-09-27T19:22:08.286Z,18.80
2017-09-27T19:24:39.178Z,15.70
2017-09-27T19:27:08.751Z,17.25
2017-09-27T19:29:38.459Z,18.70
2017-09-27T19:32:08.255Z,18.15
2017-09-27T19:34:37.270Z,19.40
2017-09-27T19:37:06.219Z,19.30
2017-09-27T19:39:35.060Z,19.20
2017-09-27T19:42:06.857Z,19.45
2017-09-27T19:44:37.886Z,17.40
2017-09-27T19:47:07.833Z,17.23
2017-09-27T19:49:37.436Z,17.50
2017-09-27T19:52:06.563Z,17.67
2017-09-27T19:54:36.738Z,17.90
2017-09-27T19:57:05.769Z,18.62
2017-09-27T19:59:34.819Z,18.75
2017-09-27T20:02:06.946Z,18.23
2017-09-27T20:04:36.007Z,18.17
2017-09-27T20:07:05.910Z,19.90
2017-09-27T20:09:35.043Z,19.30
2017-09-27T20:12:06.702Z,19.80
2017-09-27T20:14:36.445Z,18.65
2017-09-27T20:17:05.526Z,19.27
2017-09-27T20:19:35.254Z,18.02
2017-09-27T20:22:04.632Z,17.83
2017-09-27T20:24:35.664Z,19.05
2017-09-27T20:27:05.487Z,18.83
2017-09-27T20:29:35.133Z,18.55
2017-09-27T20:32:04.892Z,17.57
2017-09-27T20:34:33.967Z,18.10
2017-09-27T20:37:03.777Z,18.73
2017-09-27T20:39:32.767Z,20.40
2017-09-27T20:42:02.744Z,18.75
2017-09-27T20:44:31.930Z,24.75
2017-09-27T20:47:00.960Z,29.48
2017-09-27T20:49:30.024Z,24.92
2017-09-27T20:51:59.102Z,20.00
2017-09-27T20:54:28.361Z,20.67
2017-09-27T20:56:57.495Z,20.42
2017-09-27T20:59:27.582Z,18.50
2017-09-27T21:01:56.742Z,18.83
2017-09-27T21:04:25.927Z,17.08
2017-09-27T21:06:55.310Z,21.58
2017-09-27T21:09:24.390Z,21.67
2017-09-27T21:11:54.165Z,20.37
2017-09-27T21:14:23.496Z,22.40
2017-09-27T21:16:53.160Z,19.05
2017-09-27T21:19:21.994Z,20.30
2017-09-27T21:21:51.649Z,34.65
2017-09-27T21:24:20.579Z,20.23
2017-09-27T21:26:50.572Z,37.85
2017-09-27T21:29:19.675Z,23.97
2017-09-27T21:31:48.538Z,20.48
2017-09-27T21:34:17.690Z,23.83
2017-09-27T21:36:48.199Z,21.70
2017-09-27T21:39:18.309Z,21.73
2017-09-27T21:41:48.914Z,21.95
2017-09-27T21:44:18.979Z,20.03
2017-09-27T21:46:48.766Z,21.70
2017-09-27T21:49:17.795Z,20.23
2017-09-27T21:51:46.777Z,19.55
2017-09-27T21:54:15.762Z,18.05
2017-09-27T21:56:46.139Z,18.87
2017-09-27T21:59:15.156Z,17.70
2017-09-27T22:01:43.981Z,18.27
2017-09-27T22:04:12.849Z,17.37
2017-09-27T22:06:42.548Z,23.48
2017-09-27T22:09:12.206Z,33.88
2017-09-27T22:11:41.250Z,28.60
2017-09-27T22:14:10.948Z,22.65
2017-09-27T22:16:40.032Z,22.25
2017-09-27T22:19:08.978Z,20.77
2017-09-27T22:21:38.074Z,20.23
2017-09-27T22:24:07.337Z,18.50
2017-09-27T22:26:36.426Z,18.90
2017-09-27T22:29:11.658Z,22.37
2017-09-27T22:31:40.877Z,18.02
2017-09-27T22:34:10.758Z,18.80
2017-09-27T22:36:39.880Z,23.87
2017-09-27T22:39:09.583Z,19.40
2017-09-27T22:41:38.903Z,19.07
2017-09-27T22:44:07.851Z,20.00
2017-09-27T22:46:37.063Z,19.90
2017-09-27T22:49:06.533Z,19.73
2017-09-27T22:51:35.601Z,18.92
2017-09-27T22:54:04.682Z,19.90
2017-09-27T22:56:33.646Z,19.23
2017-09-27T22:59:02.591Z,19.90
2017-09-27T23:01:32.098Z,19.80
2017-09-27T23:04:01.020Z,20.30
2017-09-27T23:06:29.952Z,21.10
2017-09-27T23:08:58.871Z,20.23
2017-09-27T23:11:27.826Z,20.23
2017-09-27T23:13:57.521Z,22.65
2017-09-27T23:16:27.391Z,23.25
2017-09-27T23:18:56.442Z,25.35
2017-09-27T23:21:25.533Z,23.38
2017-09-27T23:23:55.139Z,24.25
2017-09-27T23:26:25.667Z,23.92
2017-09-27T23:28:55.651Z,24.73
2017-09-27T23:31:25.165Z,25.15
2017-09-27T23:33:54.461Z,26.37
2017-09-27T23:36:23.377Z,23.38
2017-09-27T23:38:52.329Z,24.35
2017-09-27T23:41:21.279Z,26.00
2017-09-27T23:43:50.486Z,27.25
2017-09-27T23:46:19.408Z,27.05
2017-09-27T23:48:48.300Z,27.75
2017-09-27T23:51:17.576Z,27.98
2017-09-27T23:53:46.805Z,27.80
2017-09-27T23:56:15.848Z,29.03
2017-09-27T23:58:44.785Z,26.73
